sensor_id;sensor_type;location;lat;lon;timestamp;P1;durP1;ratioP1;P2;durP2;ratioP2
66487;SDS011;53304;54.550;18.526;2022-07-09T00:01:59;4.10;;;1.40;;
66487;SDS011;53304;54.550;18.526;2022-07-09T00:04:30;4.00;;;1.30;;
66487;SDS011;53304;54.550;18.526;2022-07-09T00:06:56;5.20;;;1.55;;
66487;SDS011;53304;54.550;18.526;2022-07-09T00:09:28;4.65;;;1.60;;
66487;SDS011;53304;54.550;18.526;2022-07-09T00:11:54;3.38;;;1.20;;
66487;SDS011;53304;54.550;18.526;2022-07-09T00:14:19;3.88;;;1.42;;
66487;SDS011;53304;54.550;18.526;2022-07-09T00:16:44;3.97;;;1.50;;
66487;SDS011;53304;54.550;18.526;2022-07-09T00:19:10;5.10;;;1.40;;
66487;SDS011;53304;54.550;18.526;2022-07-09T00:21:35;3.03;;;1.42;;
66487;SDS011;53304;54.550;18.526;2022-07-09T00:24:01;3.35;;;1.40;;
66487;SDS011;53304;54.550;18.526;2022-07-09T00:26:29;4.38;;;1.45;;
66487;SDS011;53304;54.550;18.526;2022-07-09T00:28:56;2.97;;;1.30;;
66487;SDS011;53304;54.550;18.526;2022-07-09T00:31:24;4.20;;;1.48;;
66487;SDS011;53304;54.550;18.526;2022-07-09T00:33:50;3.65;;;1.30;;
66487;SDS011;53304;54.550;18.526;2022-07-09T00:36:15;4.85;;;1.50;;
66487;SDS011;53304;54.550;18.526;2022-07-09T00:38:43;5.60;;;1.40;;
66487;SDS011;53304;54.550;18.526;2022-07-09T00:41:11;4.15;;;1.27;;
66487;SDS011;53304;54.550;18.526;2022-07-09T00:43:45;3.63;;;1.40;;
66487;SDS011;53304;54.550;18.526;2022-07-09T00:46:11;3.63;;;1.33;;
66487;SDS011;53304;54.550;18.526;2022-07-09T00:48:36;1.88;;;1.25;;
66487;SDS011;53304;54.550;18.526;2022-07-09T00:51:04;2.95;;;1.27;;
66487;SDS011;53304;54.550;18.526;2022-07-09T00:53:30;3.63;;;1.60;;
66487;SDS011;53304;54.550;18.526;2022-07-09T00:55:57;4.00;;;1.48;;
66487;SDS011;53304;54.550;18.526;2022-07-09T00:58:23;3.88;;;1.40;;
66487;SDS011;53304;54.550;18.526;2022-07-09T01:00:49;3.35;;;1.40;;
66487;SDS011;53304;54.550;18.526;2022-07-09T01:03:17;2.92;;;1.27;;
66487;SDS011;53304;54.550;18.526;2022-07-09T01:05:42;3.80;;;1.40;;
66487;SDS011;53304;54.550;18.526;2022-07-09T01:08:08;3.70;;;1.30;;
66487;SDS011;53304;54.550;18.526;2022-07-09T01:10:36;2.95;;;1.35;;
66487;SDS011;53304;54.550;18.526;2022-07-09T01:13:04;3.80;;;1.20;;
66487;SDS011;53304;54.550;18.526;2022-07-09T01:15:29;2.90;;;1.35;;
66487;SDS011;53304;54.550;18.526;2022-07-09T01:17:55;2.45;;;1.20;;
66487;SDS011;53304;54.550;18.526;2022-07-09T01:20:22;3.63;;;1.52;;
66487;SDS011;53304;54.550;18.526;2022-07-09T01:22:49;3.58;;;1.30;;
66487;SDS011;53304;54.550;18.526;2022-07-09T01:25:19;2.08;;;1.10;;
66487;SDS011;53304;54.550;18.526;2022-07-09T01:27:47;4.38;;;1.45;;
66487;SDS011;53304;54.550;18.526;2022-07-09T01:30:23;4.20;;;1.42;;
66487;SDS011;53304;54.550;18.526;2022-07-09T01:32:52;2.65;;;1.13;;
66487;SDS011;53304;54.550;18.526;2022-07-09T01:35:18;4.15;;;1.30;;
66487;SDS011;53304;54.550;18.526;2022-07-09T01:37:46;2.92;;;1.40;;
66487;SDS011;53304;54.550;18.526;2022-07-09T01:40:14;3.03;;;1.10;;
66487;SDS011;53304;54.550;18.526;2022-07-09T01:42:42;2.08;;;1.17;;
66487;SDS011;53304;54.550;18.526;2022-07-09T01:45:07;3.03;;;1.30;;
66487;SDS011;53304;54.550;18.526;2022-07-09T01:47:36;4.13;;;1.20;;
66487;SDS011;53304;54.550;18.526;2022-07-09T01:50:08;2.65;;;1.10;;
66487;SDS011;53304;54.550;18.526;2022-07-09T01:52:34;4.10;;;1.23;;
66487;SDS011;53304;54.550;18.526;2022-07-09T01:55:00;2.85;;;1.10;;
66487;SDS011;53304;54.550;18.526;2022-07-09T01:57:26;3.13;;;1.20;;
66487;SDS011;53304;54.550;18.526;2022-07-09T01:59:56;3.10;;;1.10;;
66487;SDS011;53304;54.550;18.526;2022-07-09T02:02:22;3.50;;;1.27;;
66487;SDS011;53304;54.550;18.526;2022-07-09T02:04:49;3.35;;;1.15;;
66487;SDS011;53304;54.550;18.526;2022-07-09T02:07:20;4.32;;;1.20;;
66487;SDS011;53304;54.550;18.526;2022-07-09T02:09:52;2.60;;;1.02;;
66487;SDS011;53304;54.550;18.526;2022-07-09T02:12:17;2.05;;;1.20;;
66487;SDS011;53304;54.550;18.526;2022-07-09T02:14:45;2.15;;;1.02;;
66487;SDS011;53304;54.550;18.526;2022-07-09T02:17:13;2.65;;;1.23;;
66487;SDS011;53304;54.550;18.526;2022-07-09T02:19:41;2.85;;;1.13;;
66487;SDS011;53304;54.550;18.526;2022-07-09T02:22:06;4.53;;;1.13;;
66487;SDS011;53304;54.550;18.526;2022-07-09T02:24:32;3.70;;;1.10;;
66487;SDS011;53304;54.550;18.526;2022-07-09T02:26:57;2.75;;;1.25;;
66487;SDS011;53304;54.550;18.526;2022-07-09T02:29:22;3.95;;;1.20;;
66487;SDS011;53304;54.550;18.526;2022-07-09T02:31:50;2.75;;;1.10;;
66487;SDS011;53304;54.550;18.526;2022-07-09T02:34:16;1.75;;;1.10;;
66487;SDS011;53304;54.550;18.526;2022-07-09T02:36:46;2.20;;;1.20;;
66487;SDS011;53304;54.550;18.526;2022-07-09T02:39:13;2.70;;;1.15;;
66487;SDS011;53304;54.550;18.526;2022-07-09T02:41:39;1.92;;;1.25;;
66487;SDS011;53304;54.550;18.526;2022-07-09T02:44:04;4.35;;;1.50;;
66487;SDS011;53304;54.550;18.526;2022-07-09T02:46:34;3.78;;;1.42;;
66487;SDS011;53304;54.550;18.526;2022-07-09T02:49:02;4.20;;;1.48;;
66487;SDS011;53304;54.550;18.526;2022-07-09T02:51:28;2.78;;;1.50;;
66487;SDS011;53304;54.550;18.526;2022-07-09T02:53:54;3.40;;;1.73;;
66487;SDS011;53304;54.550;18.526;2022-07-09T02:56:22;3.97;;;1.60;;
66487;SDS011;53304;54.550;18.526;2022-07-09T02:58:47;3.38;;;1.50;;
66487;SDS011;53304;54.550;18.526;2022-07-09T03:01:20;3.00;;;1.50;;
66487;SDS011;53304;54.550;18.526;2022-07-09T03:03:45;5.40;;;1.60;;
66487;SDS011;53304;54.550;18.526;2022-07-09T03:06:13;3.05;;;1.60;;
66487;SDS011;53304;54.550;18.526;2022-07-09T03:08:40;2.58;;;1.25;;
66487;SDS011;53304;54.550;18.526;2022-07-09T03:11:08;4.63;;;1.48;;
66487;SDS011;53304;54.550;18.526;2022-07-09T03:13:36;3.00;;;1.30;;
66487;SDS011;53304;54.550;18.526;2022-07-09T03:16:04;3.10;;;1.60;;
66487;SDS011;53304;54.550;18.526;2022-07-09T03:18:32;3.83;;;1.60;;
66487;SDS011;53304;54.550;18.526;2022-07-09T03:20:58;3.55;;;1.38;;
66487;SDS011;53304;54.550;18.526;2022-07-09T03:23:23;4.03;;;1.67;;
66487;SDS011;53304;54.550;18.526;2022-07-09T03:25:49;2.53;;;1.30;;
66487;SDS011;53304;54.550;18.526;2022-07-09T03:28:19;5.60;;;1.50;;
66487;SDS011;53304;54.550;18.526;2022-07-09T03:30:44;3.83;;;1.50;;
66487;SDS011;53304;54.550;18.526;2022-07-09T03:33:13;4.57;;;1.48;;
66487;SDS011;53304;54.550;18.526;2022-07-09T03:35:39;3.78;;;1.50;;
66487;SDS011;53304;54.550;18.526;2022-07-09T03:38:04;2.65;;;1.35;;
66487;SDS011;53304;54.550;18.526;2022-07-09T03:40:30;3.47;;;1.25;;
66487;SDS011;53304;54.550;18.526;2022-07-09T03:42:55;2.63;;;1.20;;
66487;SDS011;53304;54.550;18.526;2022-07-09T03:45:21;4.03;;;1.48;;
66487;SDS011;53304;54.550;18.526;2022-07-09T03:47:46;4.88;;;1.38;;
66487;SDS011;53304;54.550;18.526;2022-07-09T03:50:15;3.50;;;1.20;;
66487;SDS011;53304;54.550;18.526;2022-07-09T03:52:40;4.00;;;1.20;;
66487;SDS011;53304;54.550;18.526;2022-07-09T03:55:06;4.18;;;1.38;;
66487;SDS011;53304;54.550;18.526;2022-07-09T03:57:36;2.25;;;1.20;;
66487;SDS011;53304;54.550;18.526;2022-07-09T04:00:05;3.22;;;1.30;;
66487;SDS011;53304;54.550;18.526;2022-07-09T04:02:33;3.78;;;1.40;;
66487;SDS011;53304;54.550;18.526;2022-07-09T04:04:59;4.72;;;1.35;;
66487;SDS011;53304;54.550;18.526;2022-07-09T04:07:24;3.17;;;1.35;;
66487;SDS011;53304;54.550;18.526;2022-07-09T04:09:53;5.00;;;1.50;;
66487;SDS011;53304;54.550;18.526;2022-07-09T04:12:19;4.47;;;1.35;;
66487;SDS011;53304;54.550;18.526;2022-07-09T04:14:45;2.10;;;1.23;;
66487;SDS011;53304;54.550;18.526;2022-07-09T04:17:13;3.33;;;1.27;;
66487;SDS011;53304;54.550;18.526;2022-07-09T04:19:38;4.53;;;1.20;;
66487;SDS011;53304;54.550;18.526;2022-07-09T04:22:06;4.22;;;1.30;;
66487;SDS011;53304;54.550;18.526;2022-07-09T04:24:34;3.30;;;1.23;;
66487;SDS011;53304;54.550;18.526;2022-07-09T04:26:59;2.58;;;1.30;;
66487;SDS011;53304;54.550;18.526;2022-07-09T04:29:24;3.53;;;1.20;;
66487;SDS011;53304;54.550;18.526;2022-07-09T04:31:50;3.78;;;1.30;;
66487;SDS011;53304;54.550;18.526;2022-07-09T04:34:17;4.20;;;1.20;;
66487;SDS011;53304;54.550;18.526;2022-07-09T04:36:43;3.38;;;1.38;;
66487;SDS011;53304;54.550;18.526;2022-07-09T04:39:11;7.53;;;1.33;;
66487;SDS011;53304;54.550;18.526;2022-07-09T04:41:36;4.88;;;1.42;;
66487;SDS011;53304;54.550;18.526;2022-07-09T04:44:02;4.53;;;1.55;;
66487;SDS011;53304;54.550;18.526;2022-07-09T04:46:29;5.13;;;1.63;;
66487;SDS011;53304;54.550;18.526;2022-07-09T04:48:59;5.25;;;1.50;;
66487;SDS011;53304;54.550;18.526;2022-07-09T04:51:29;6.20;;;1.60;;
66487;SDS011;53304;54.550;18.526;2022-07-09T04:53:57;4.68;;;1.45;;
66487;SDS011;53304;54.550;18.526;2022-07-09T04:56:24;4.28;;;1.50;;
66487;SDS011;53304;54.550;18.526;2022-07-09T04:58:53;7.35;;;1.45;;
66487;SDS011;53304;54.550;18.526;2022-07-09T05:01:21;6.45;;;1.60;;
66487;SDS011;53304;54.550;18.526;2022-07-09T05:03:49;7.65;;;1.70;;
66487;SDS011;53304;54.550;18.526;2022-07-09T05:06:15;3.60;;;1.27;;
66487;SDS011;53304;54.550;18.526;2022-07-09T05:08:41;6.65;;;1.50;;
66487;SDS011;53304;54.550;18.526;2022-07-09T05:11:07;5.28;;;1.40;;
66487;SDS011;53304;54.550;18.526;2022-07-09T05:13:35;15.45;;;2.00;;
66487;SDS011;53304;54.550;18.526;2022-07-09T05:18:30;13.02;;;2.10;;
66487;SDS011;53304;54.550;18.526;2022-07-09T05:20:58;9.23;;;1.88;;
66487;SDS011;53304;54.550;18.526;2022-07-09T05:23:25;13.85;;;1.83;;
66487;SDS011;53304;54.550;18.526;2022-07-09T05:25:51;5.55;;;1.50;;
66487;SDS011;53304;54.550;18.526;2022-07-09T05:28:21;4.28;;;1.63;;
66487;SDS011;53304;54.550;18.526;2022-07-09T05:30:48;5.82;;;1.65;;
66487;SDS011;53304;54.550;18.526;2022-07-09T05:33:14;6.95;;;1.63;;
66487;SDS011;53304;54.550;18.526;2022-07-09T05:35:42;4.65;;;1.30;;
66487;SDS011;53304;54.550;18.526;2022-07-09T05:38:10;6.40;;;1.52;;
66487;SDS011;53304;54.550;18.526;2022-07-09T05:40:35;3.22;;;1.42;;
66487;SDS011;53304;54.550;18.526;2022-07-09T05:43:03;3.78;;;1.30;;
66487;SDS011;53304;54.550;18.526;2022-07-09T05:45:31;4.68;;;1.75;;
66487;SDS011;53304;54.550;18.526;2022-07-09T05:47:56;5.53;;;1.63;;
66487;SDS011;53304;54.550;18.526;2022-07-09T05:50:22;10.50;;;2.08;;
66487;SDS011;53304;54.550;18.526;2022-07-09T05:52:52;5.70;;;1.58;;
66487;SDS011;53304;54.550;18.526;2022-07-09T05:55:22;7.25;;;1.60;;
66487;SDS011;53304;54.550;18.526;2022-07-09T05:57:53;6.50;;;1.70;;
66487;SDS011;53304;54.550;18.526;2022-07-09T06:00:23;8.23;;;1.80;;
66487;SDS011;53304;54.550;18.526;2022-07-09T06:02:48;9.25;;;1.60;;
66487;SDS011;53304;54.550;18.526;2022-07-09T06:05:14;10.02;;;2.30;;
66487;SDS011;53304;54.550;18.526;2022-07-09T06:07:41;5.45;;;1.90;;
66487;SDS011;53304;54.550;18.526;2022-07-09T06:10:12;6.88;;;1.70;;
66487;SDS011;53304;54.550;18.526;2022-07-09T06:12:39;6.72;;;1.60;;
66487;SDS011;53304;54.550;18.526;2022-07-09T06:15:07;7.03;;;1.80;;
66487;SDS011;53304;54.550;18.526;2022-07-09T06:17:36;5.72;;;1.65;;
66487;SDS011;53304;54.550;18.526;2022-07-09T06:20:04;11.05;;;1.65;;
66487;SDS011;53304;54.550;18.526;2022-07-09T06:22:33;7.05;;;1.90;;
66487;SDS011;53304;54.550;18.526;2022-07-09T06:24:58;6.35;;;1.90;;
66487;SDS011;53304;54.550;18.526;2022-07-09T06:27:24;7.95;;;2.00;;
66487;SDS011;53304;54.550;18.526;2022-07-09T06:29:49;6.13;;;1.80;;
66487;SDS011;53304;54.550;18.526;2022-07-09T06:32:15;7.55;;;2.03;;
66487;SDS011;53304;54.550;18.526;2022-07-09T06:34:43;11.70;;;2.15;;
66487;SDS011;53304;54.550;18.526;2022-07-09T06:37:08;7.97;;;2.20;;
66487;SDS011;53304;54.550;18.526;2022-07-09T06:39:36;8.05;;;2.20;;
66487;SDS011;53304;54.550;18.526;2022-07-09T06:42:13;9.43;;;1.92;;
66487;SDS011;53304;54.550;18.526;2022-07-09T06:44:41;9.55;;;2.15;;
66487;SDS011;53304;54.550;18.526;2022-07-09T06:47:07;9.80;;;2.40;;
66487;SDS011;53304;54.550;18.526;2022-07-09T06:49:33;9.00;;;2.20;;
66487;SDS011;53304;54.550;18.526;2022-07-09T06:51:59;7.03;;;2.13;;
66487;SDS011;53304;54.550;18.526;2022-07-09T06:54:25;15.38;;;3.17;;
66487;SDS011;53304;54.550;18.526;2022-07-09T06:56:50;14.60;;;3.30;;
66487;SDS011;53304;54.550;18.526;2022-07-09T06:59:18;15.32;;;3.10;;
66487;SDS011;53304;54.550;18.526;2022-07-09T07:01:45;15.25;;;3.15;;
66487;SDS011;53304;54.550;18.526;2022-07-09T07:04:13;9.77;;;2.70;;
66487;SDS011;53304;54.550;18.526;2022-07-09T07:06:41;11.15;;;2.40;;
66487;SDS011;53304;54.550;18.526;2022-07-09T07:09:07;13.02;;;2.70;;
66487;SDS011;53304;54.550;18.526;2022-07-09T07:11:33;9.88;;;2.53;;
66487;SDS011;53304;54.550;18.526;2022-07-09T07:14:01;9.13;;;2.42;;
66487;SDS011;53304;54.550;18.526;2022-07-09T07:16:26;17.60;;;3.30;;
66487;SDS011;53304;54.550;18.526;2022-07-09T07:18:52;13.85;;;2.70;;
66487;SDS011;53304;54.550;18.526;2022-07-09T07:21:20;13.65;;;3.10;;
66487;SDS011;53304;54.550;18.526;2022-07-09T07:23:45;15.80;;;3.22;;
66487;SDS011;53304;54.550;18.526;2022-07-09T07:26:11;12.40;;;3.28;;
66487;SDS011;53304;54.550;18.526;2022-07-09T07:28:38;12.88;;;2.78;;
66487;SDS011;53304;54.550;18.526;2022-07-09T07:31:04;12.65;;;3.10;;
66487;SDS011;53304;54.550;18.526;2022-07-09T07:33:29;18.40;;;3.65;;
66487;SDS011;53304;54.550;18.526;2022-07-09T07:35:57;9.25;;;2.55;;
66487;SDS011;53304;54.550;18.526;2022-07-09T07:38:22;14.40;;;2.60;;
66487;SDS011;53304;54.550;18.526;2022-07-09T07:40:52;11.52;;;2.78;;
66487;SDS011;53304;54.550;18.526;2022-07-09T07:43:18;7.47;;;2.30;;
66487;SDS011;53304;54.550;18.526;2022-07-09T07:45:43;9.57;;;2.33;;
66487;SDS011;53304;54.550;18.526;2022-07-09T07:48:13;6.93;;;2.13;;
66487;SDS011;53304;54.550;18.526;2022-07-09T07:50:41;7.20;;;2.30;;
66487;SDS011;53304;54.550;18.526;2022-07-09T07:53:09;7.78;;;2.08;;
66487;SDS011;53304;54.550;18.526;2022-07-09T07:55:34;6.38;;;2.40;;
66487;SDS011;53304;54.550;18.526;2022-07-09T07:58:00;7.10;;;2.15;;
66487;SDS011;53304;54.550;18.526;2022-07-09T08:00:27;6.85;;;2.10;;
66487;SDS011;53304;54.550;18.526;2022-07-09T08:02:55;6.00;;;1.88;;
66487;SDS011;53304;54.550;18.526;2022-07-09T08:05:21;6.45;;;2.30;;
66487;SDS011;53304;54.550;18.526;2022-07-09T08:07:46;7.22;;;2.15;;
66487;SDS011;53304;54.550;18.526;2022-07-09T08:10:12;6.18;;;2.22;;
66487;SDS011;53304;54.550;18.526;2022-07-09T08:12:39;6.28;;;2.10;;
66487;SDS011;53304;54.550;18.526;2022-07-09T08:15:05;6.40;;;2.22;;
66487;SDS011;53304;54.550;18.526;2022-07-09T08:17:31;5.82;;;1.98;;
66487;SDS011;53304;54.550;18.526;2022-07-09T08:19:56;4.88;;;2.00;;
66487;SDS011;53304;54.550;18.526;2022-07-09T08:22:21;6.70;;;2.00;;
66487;SDS011;53304;54.550;18.526;2022-07-09T08:24:47;4.80;;;1.85;;
66487;SDS011;53304;54.550;18.526;2022-07-09T08:27:12;6.05;;;1.92;;
66487;SDS011;53304;54.550;18.526;2022-07-09T08:29:37;5.85;;;2.17;;
66487;SDS011;53304;54.550;18.526;2022-07-09T08:32:03;7.18;;;1.77;;
66487;SDS011;53304;54.550;18.526;2022-07-09T08:34:31;6.20;;;2.03;;
66487;SDS011;53304;54.550;18.526;2022-07-09T08:36:59;8.30;;;2.05;;
66487;SDS011;53304;54.550;18.526;2022-07-09T08:39:24;3.72;;;1.58;;
66487;SDS011;53304;54.550;18.526;2022-07-09T08:41:50;6.82;;;1.60;;
66487;SDS011;53304;54.550;18.526;2022-07-09T08:44:18;4.75;;;1.73;;
66487;SDS011;53304;54.550;18.526;2022-07-09T08:46:47;7.22;;;2.00;;
66487;SDS011;53304;54.550;18.526;2022-07-09T08:49:12;6.47;;;1.90;;
66487;SDS011;53304;54.550;18.526;2022-07-09T08:51:40;5.65;;;1.98;;
66487;SDS011;53304;54.550;18.526;2022-07-09T08:54:08;4.97;;;1.88;;
66487;SDS011;53304;54.550;18.526;2022-07-09T08:56:34;6.13;;;1.70;;
66487;SDS011;53304;54.550;18.526;2022-07-09T08:59:00;5.03;;;1.80;;
66487;SDS011;53304;54.550;18.526;2022-07-09T09:01:26;6.40;;;1.63;;
66487;SDS011;53304;54.550;18.526;2022-07-09T09:03:52;3.55;;;1.52;;
66487;SDS011;53304;54.550;18.526;2022-07-09T09:06:20;4.25;;;1.60;;
66487;SDS011;53304;54.550;18.526;2022-07-09T09:08:46;4.90;;;1.85;;
66487;SDS011;53304;54.550;18.526;2022-07-09T09:11:15;5.22;;;1.77;;
66487;SDS011;53304;54.550;18.526;2022-07-09T09:13:45;3.63;;;1.70;;
66487;SDS011;53304;54.550;18.526;2022-07-09T09:16:12;4.93;;;1.50;;
66487;SDS011;53304;54.550;18.526;2022-07-09T09:21:09;5.22;;;1.55;;
66487;SDS011;53304;54.550;18.526;2022-07-09T09:26:08;3.60;;;1.60;;
66487;SDS011;53304;54.550;18.526;2022-07-09T09:28:49;5.10;;;1.60;;
66487;SDS011;53304;54.550;18.526;2022-07-09T09:33:54;5.83;;;1.40;;
66487;SDS011;53304;54.550;18.526;2022-07-09T09:36:34;3.92;;;1.52;;
66487;SDS011;53304;54.550;18.526;2022-07-09T09:39:21;2.90;;;1.33;;
66487;SDS011;53304;54.550;18.526;2022-07-09T09:41:55;5.40;;;1.77;;
66487;SDS011;53304;54.550;18.526;2022-07-09T09:44:23;4.85;;;1.48;;
66487;SDS011;53304;54.550;18.526;2022-07-09T09:46:54;4.97;;;1.40;;
66487;SDS011;53304;54.550;18.526;2022-07-09T09:49:20;4.78;;;1.52;;
66487;SDS011;53304;54.550;18.526;2022-07-09T09:52:04;3.53;;;1.60;;
66487;SDS011;53304;54.550;18.526;2022-07-09T09:54:31;4.40;;;1.50;;
66487;SDS011;53304;54.550;18.526;2022-07-09T09:56:58;4.70;;;1.52;;
66487;SDS011;53304;54.550;18.526;2022-07-09T09:59:24;4.07;;;1.50;;
66487;SDS011;53304;54.550;18.526;2022-07-09T10:01:50;2.95;;;1.50;;
66487;SDS011;53304;54.550;18.526;2022-07-09T10:04:15;3.38;;;1.50;;
66487;SDS011;53304;54.550;18.526;2022-07-09T10:06:41;5.25;;;1.30;;
66487;SDS011;53304;54.550;18.526;2022-07-09T10:09:13;4.20;;;1.60;;
66487;SDS011;53304;54.550;18.526;2022-07-09T10:11:45;3.80;;;1.40;;
66487;SDS011;53304;54.550;18.526;2022-07-09T10:14:17;3.40;;;1.40;;
66487;SDS011;53304;54.550;18.526;2022-07-09T10:16:53;3.33;;;1.42;;
66487;SDS011;53304;54.550;18.526;2022-07-09T10:19:24;3.38;;;1.48;;
66487;SDS011;53304;54.550;18.526;2022-07-09T10:21:52;3.53;;;1.33;;
66487;SDS011;53304;54.550;18.526;2022-07-09T10:24:24;3.30;;;1.27;;
66487;SDS011;53304;54.550;18.526;2022-07-09T10:27:02;3.33;;;1.52;;
66487;SDS011;53304;54.550;18.526;2022-07-09T10:29:47;4.22;;;1.60;;
66487;SDS011;53304;54.550;18.526;2022-07-09T10:32:30;4.88;;;1.50;;
66487;SDS011;53304;54.550;18.526;2022-07-09T10:35:02;3.13;;;1.25;;
66487;SDS011;53304;54.550;18.526;2022-07-09T10:40:09;3.60;;;1.33;;
66487;SDS011;53304;54.550;18.526;2022-07-09T10:42:45;3.33;;;1.20;;
66487;SDS011;53304;54.550;18.526;2022-07-09T10:48:03;3.00;;;1.40;;
66487;SDS011;53304;54.550;18.526;2022-07-09T10:50:32;2.83;;;1.38;;
66487;SDS011;53304;54.550;18.526;2022-07-09T10:53:00;4.72;;;1.40;;
66487;SDS011;53304;54.550;18.526;2022-07-09T10:55:27;3.35;;;1.30;;
66487;SDS011;53304;54.550;18.526;2022-07-09T10:57:55;3.20;;;1.40;;
66487;SDS011;53304;54.550;18.526;2022-07-09T11:00:25;4.10;;;1.33;;
66487;SDS011;53304;54.550;18.526;2022-07-09T11:05:17;3.90;;;1.25;;
66487;SDS011;53304;54.550;18.526;2022-07-09T11:07:59;3.05;;;1.33;;
66487;SDS011;53304;54.550;18.526;2022-07-09T11:10:32;2.25;;;1.08;;
66487;SDS011;53304;54.550;18.526;2022-07-09T11:13:00;3.05;;;1.33;;
66487;SDS011;53304;54.550;18.526;2022-07-09T11:15:32;5.50;;;1.40;;
66487;SDS011;53304;54.550;18.526;2022-07-09T11:20:32;3.90;;;1.50;;
66487;SDS011;53304;54.550;18.526;2022-07-09T11:23:05;3.67;;;1.27;;
66487;SDS011;53304;54.550;18.526;2022-07-09T11:25:36;6.05;;;1.50;;
66487;SDS011;53304;54.550;18.526;2022-07-09T11:28:04;3.10;;;1.33;;
66487;SDS011;53304;54.550;18.526;2022-07-09T11:30:29;4.75;;;1.30;;
66487;SDS011;53304;54.550;18.526;2022-07-09T11:32:57;4.10;;;1.40;;
66487;SDS011;53304;54.550;18.526;2022-07-09T11:35:28;4.72;;;1.73;;
66487;SDS011;53304;54.550;18.526;2022-07-09T11:37:59;3.53;;;1.40;;
66487;SDS011;53304;54.550;18.526;2022-07-09T11:40:28;3.60;;;1.30;;
66487;SDS011;53304;54.550;18.526;2022-07-09T11:42:56;4.50;;;1.42;;
66487;SDS011;53304;54.550;18.526;2022-07-09T11:45:23;3.22;;;1.50;;
66487;SDS011;53304;54.550;18.526;2022-07-09T11:47:55;3.47;;;1.33;;
66487;SDS011;53304;54.550;18.526;2022-07-09T11:50:27;4.10;;;1.38;;
66487;SDS011;53304;54.550;18.526;2022-07-09T11:52:58;3.17;;;1.48;;
66487;SDS011;53304;54.550;18.526;2022-07-09T11:55:30;4.55;;;1.50;;
66487;SDS011;53304;54.550;18.526;2022-07-09T11:58:06;4.13;;;1.60;;
66487;SDS011;53304;54.550;18.526;2022-07-09T12:00:34;3.28;;;1.30;;
66487;SDS011;53304;54.550;18.526;2022-07-09T12:03:04;3.30;;;1.40;;
66487;SDS011;53304;54.550;18.526;2022-07-09T12:05:36;3.95;;;1.50;;
66487;SDS011;53304;54.550;18.526;2022-07-09T12:08:07;4.65;;;1.42;;
66487;SDS011;53304;54.550;18.526;2022-07-09T12:10:33;3.97;;;1.40;;
66487;SDS011;53304;54.550;18.526;2022-07-09T12:13:00;3.85;;;1.25;;
66487;SDS011;53304;54.550;18.526;2022-07-09T12:15:31;2.58;;;1.27;;
66487;SDS011;53304;54.550;18.526;2022-07-09T12:17:58;3.90;;;1.30;;
66487;SDS011;53304;54.550;18.526;2022-07-09T12:20:25;4.45;;;1.50;;
66487;SDS011;53304;54.550;18.526;2022-07-09T12:22:54;2.53;;;1.17;;
66487;SDS011;53304;54.550;18.526;2022-07-09T12:25:22;4.47;;;1.35;;
66487;SDS011;53304;54.550;18.526;2022-07-09T12:27:47;4.05;;;1.25;;
66487;SDS011;53304;54.550;18.526;2022-07-09T12:30:15;2.45;;;1.30;;
66487;SDS011;53304;54.550;18.526;2022-07-09T12:32:41;3.80;;;1.45;;
66487;SDS011;53304;54.550;18.526;2022-07-09T12:35:07;2.95;;;1.23;;
66487;SDS011;53304;54.550;18.526;2022-07-09T12:37:34;2.30;;;1.20;;
66487;SDS011;53304;54.550;18.526;2022-07-09T12:40:02;2.00;;;1.00;;
66487;SDS011;53304;54.550;18.526;2022-07-09T12:42:29;3.67;;;1.02;;
66487;SDS011;53304;54.550;18.526;2022-07-09T12:44:54;3.45;;;1.20;;
66487;SDS011;53304;54.550;18.526;2022-07-09T12:47:19;3.30;;;1.25;;
66487;SDS011;53304;54.550;18.526;2022-07-09T12:49:50;2.47;;;1.00;;
66487;SDS011;53304;54.550;18.526;2022-07-09T12:52:17;3.42;;;1.20;;
66487;SDS011;53304;54.550;18.526;2022-07-09T12:54:43;3.08;;;1.27;;
66487;SDS011;53304;54.550;18.526;2022-07-09T12:57:11;4.82;;;1.13;;
66487;SDS011;53304;54.550;18.526;2022-07-09T12:59:38;2.17;;;1.10;;
66487;SDS011;53304;54.550;18.526;2022-07-09T13:02:08;3.33;;;1.10;;
66487;SDS011;53304;54.550;18.526;2022-07-09T13:04:34;2.03;;;1.00;;
66487;SDS011;53304;54.550;18.526;2022-07-09T13:07:00;1.90;;;1.10;;
66487;SDS011;53304;54.550;18.526;2022-07-09T13:09:27;2.53;;;1.00;;
66487;SDS011;53304;54.550;18.526;2022-07-09T13:11:52;1.75;;;1.02;;
66487;SDS011;53304;54.550;18.526;2022-07-09T13:14:20;3.28;;;1.35;;
66487;SDS011;53304;54.550;18.526;2022-07-09T13:16:48;3.53;;;1.10;;
66487;SDS011;53304;54.550;18.526;2022-07-09T13:19:13;2.13;;;1.10;;
66487;SDS011;53304;54.550;18.526;2022-07-09T13:21:41;1.88;;;1.10;;
66487;SDS011;53304;54.550;18.526;2022-07-09T13:24:06;3.20;;;1.00;;
66487;SDS011;53304;54.550;18.526;2022-07-09T13:26:34;3.25;;;1.30;;
66487;SDS011;53304;54.550;18.526;2022-07-09T13:29:02;6.57;;;1.40;;
66487;SDS011;53304;54.550;18.526;2022-07-09T13:31:27;5.85;;;1.38;;
66487;SDS011;53304;54.550;18.526;2022-07-09T13:33:52;3.70;;;1.10;;
66487;SDS011;53304;54.550;18.526;2022-07-09T13:36:20;3.80;;;1.40;;
66487;SDS011;53304;54.550;18.526;2022-07-09T13:38:46;4.15;;;1.30;;
66487;SDS011;53304;54.550;18.526;2022-07-09T13:41:13;5.15;;;1.40;;
66487;SDS011;53304;54.550;18.526;2022-07-09T13:43:41;2.55;;;1.30;;
66487;SDS011;53304;54.550;18.526;2022-07-09T13:46:10;6.03;;;1.47;;
66487;SDS011;53304;54.550;18.526;2022-07-09T13:48:36;2.40;;;1.20;;
66487;SDS011;53304;54.550;18.526;2022-07-09T13:51:04;5.90;;;1.20;;
66487;SDS011;53304;54.550;18.526;2022-07-09T13:53:30;6.70;;;1.40;;
66487;SDS011;53304;54.550;18.526;2022-07-09T13:55:56;5.80;;;1.27;;
66487;SDS011;53304;54.550;18.526;2022-07-09T13:58:22;5.40;;;1.33;;
66487;SDS011;53304;54.550;18.526;2022-07-09T14:00:50;3.17;;;1.20;;
66487;SDS011;53304;54.550;18.526;2022-07-09T14:03:16;3.55;;;1.40;;
66487;SDS011;53304;54.550;18.526;2022-07-09T14:05:42;4.32;;;1.20;;
66487;SDS011;53304;54.550;18.526;2022-07-09T14:08:07;4.70;;;1.35;;
66487;SDS011;53304;54.550;18.526;2022-07-09T14:10:35;5.70;;;1.35;;
66487;SDS011;53304;54.550;18.526;2022-07-09T14:13:03;5.00;;;1.70;;
66487;SDS011;53304;54.550;18.526;2022-07-09T14:15:29;4.90;;;1.52;;
66487;SDS011;53304;54.550;18.526;2022-07-09T14:17:58;3.42;;;1.10;;
66487;SDS011;53304;54.550;18.526;2022-07-09T14:20:24;2.78;;;1.15;;
66487;SDS011;53304;54.550;18.526;2022-07-09T14:22:50;2.90;;;1.25;;
66487;SDS011;53304;54.550;18.526;2022-07-09T14:25:20;2.45;;;1.20;;
66487;SDS011;53304;54.550;18.526;2022-07-09T14:27:49;3.15;;;1.20;;
66487;SDS011;53304;54.550;18.526;2022-07-09T14:30:15;2.60;;;1.10;;
66487;SDS011;53304;54.550;18.526;2022-07-09T14:32:42;2.35;;;1.00;;
66487;SDS011;53304;54.550;18.526;2022-07-09T14:35:10;1.88;;;1.10;;
66487;SDS011;53304;54.550;18.526;2022-07-09T14:37:35;6.00;;;1.10;;
66487;SDS011;53304;54.550;18.526;2022-07-09T14:40:02;3.08;;;1.30;;
66487;SDS011;53304;54.550;18.526;2022-07-09T14:42:28;4.03;;;1.45;;
66487;SDS011;53304;54.550;18.526;2022-07-09T14:44:55;4.28;;;1.20;;
66487;SDS011;53304;54.550;18.526;2022-07-09T14:47:21;2.10;;;1.10;;
66487;SDS011;53304;54.550;18.526;2022-07-09T14:49:46;3.33;;;1.33;;
66487;SDS011;53304;54.550;18.526;2022-07-09T14:52:12;4.60;;;1.67;;
66487;SDS011;53304;54.550;18.526;2022-07-09T14:54:41;4.00;;;1.27;;
66487;SDS011;53304;54.550;18.526;2022-07-09T14:57:09;3.35;;;1.40;;